Tiempo atmosférico en la estación meteorológica de Manacor, Illes Balears (100 m.)



Fecha
DESCASC
Temp. máxima en grados centígrados (hora)
DESCASC
Temp. mínima en grados centígrados (hora)
DESCASC
Temp. media en grados centígrados
DESCASC
Racha de viento máxima en m/sg (hora)
DESCASC
Velocidad máxima media en intervalos de 10 minutos(hora)
DESCASC
Precipitaciones diarias en mm
DESCASC
Precipitaciones de 00:00 a 06:00 en mm
DESCASC
Precipitaciones de 06:00 a 12:00 en mm
DESCASC
Precipitaciones de 12:00 a 18:00 en mm
DESCASC
Precipitaciones de 18:00 a 24:00 en mm
DESCASC
05-04-2020 18.8 (16:00) 5.1 (06:10) 11.9 6.11 (14:50) 3.06 (18:10) 0 0 0 0 0
04-04-2020 18.7 (14:10) 4.5 (07:10) 11.6 5.83 (17:30) 2.78 (14:10) 0.2 0 0.2 0 0
03-04-2020 17.2 (17:20) 7.6 (23:59) 12.4 11.39 (05:40) 5.28 (10:50) 5.6 5 0 0.4 0.2
02-04-2020 18.1 (15:30) 9.7 (00:00) 13.9 6.94 (17:00) 3.61 (01:10) 35.8 0 8 24.2 3.6
01-04-2020 19.6 (16:30) 13.1 (00:00) 16.4 10.83 (00:50) 5.83 (19:30) 0.2 0 0 0.2 0
31-03-2020 16.2 (14:30) 11.3 (00:00) 13.8 12.5 (10:50) 6.11 (10:50) 0.6 0 0 0.6 0
30-03-2020 18.2 (14:10) 8.6 (00:00) 13.4 8.61 (15:40) 5 (16:20) 0 0 0 0 0
29-03-2020 19.4 (14:20) 6.7 (00:00) 13 8.06 (21:10) 5.28 (18:50) 0.2 0 0 0.2 0
28-03-2020 16 (15:00) 7.9 (00:00) 12 7.78 (15:20) 3.33 (08:10) 2 1 0 1 0
27-03-2020 14.8 (14:00) 2.6 (00:00) 8.7 7.78 (12:50) 3.61 (15:50) 1.2 0.2 0.6 0.4 0
26-03-2020 11.5 (10:10) 3 (00:00) 7.3 7.22 (21:50) 3.61 (11:30) 23.8 0.2 0.2 8.2 15.2
25-03-2020 14.9 (13:20) 3.5 (00:00) 9.2 9.72 (15:00) 5.56 (14:20) 0.4 0 0 0.2 0.2
24-03-2020 14 (15:20) 9.2 (00:00) 11.6 13.89 (15:20) 7.22 (16:10) 0.8 0 0.6 0.2 0
23-03-2020 18.1 (13:40) 8.3 (00:00) 13.2 8.33 (15:30) 4.17 (15:00) 0.2 0 0 0.2 0
22-03-2020 15.9 (16:40) 9 (23:59) 12.4 6.67 (13:30) 2.5 (12:20) 23.2 0 5.2 17.8 0.2
21-03-2020 18.2 (12:50) 10.2 (00:00) 14.2 8.89 (11:10) 5 (12:20) 0 0 0 0 0
20-03-2020 17.3 (14:00) 7.9 (00:00) 12.6 11.11 (12:20) 6.11 (12:50) 0 0 0 0 0
19-03-2020 17.6 (14:40) 8.5 (00:00) 13.1 6.67 (13:30) 3.33 (14:20) 0 0 0 0 0
18-03-2020 17.6 (13:00) 10.8 (00:00) 14.2 8.61 (16:00) 4.72 (13:40) 0 0 0 0 0
17-03-2020 16.9 (13:50) 13.1 (00:00) 15 13.33 (14:10) 6.39 (14:50) 0.2 0 0 0.2 0
16-03-2020 17.1 (15:10) 9.6 (00:00) 13.4 10.56 (10:00) 5 (13:00) 0.4 0 0.4 0 0
15-03-2020 17.6 (14:20) 6.1 (00:00) 11.9 6.11 (17:10) 3.06 (12:40) 0 0 0 0 0
14-03-2020 19.7 (14:50) 8.5 (00:00) 14.1 6.11 (09:40) 3.33 (04:50) 4 4 0 0 0
13-03-2020 20.2 (15:40) 8.9 (05:20) 14.6 10.28 (12:20) 6.11 (12:10) 0 0 0 0 0
12-03-2020 24 (13:20) 8.2 (00:00) 16.1 6.39 (14:00) 4.17 (14:00) 0 0 0 0 0
11-03-2020 21.4 (14:20) 10.9 (00:00) 16.1 9.17 (00:40) 5.83 (01:40) 0 0 0 0 0
10-03-2020 17.1 (12:40) 8.8 (00:00) 13 10.28 (16:40) 6.67 (16:40) 0 0 0 0 0
09-03-2020 16.9 (11:30) 7.5 (00:00) 12.2 8.33 (12:10) 4.72 (12:00) 0 0 0 0 0

Gráficas

Temp. máximas Temp. mínimas Temp. medias Precipitaciones Rachas de viento máximas Velocidades máximas media en intervalos de 10 minutos

Datos horarios

Fecha y hora oficial Temperatura (ºC) Velocidad del viento (km/h) Dirección del viento Racha (km/h) Dirección de racha Precipitación (mm) Presión (hPa) Tendencia (hPa) Humedad (%)
2020-04-07 23:00:00 11 0 Calma 3 Nordeste 0 -- -- 83
2020-04-07 22:00:00 12.1 0 Calma 4 Sudeste 0 -- -- 78
2020-04-07 21:00:00 13.4 3 Sudeste 7 Este 0 -- -- 70
2020-04-07 20:00:00 15.4 3 Este 16 Este 0 -- -- 59
2020-04-07 19:00:00 17.4 6 Este 17 Este 0 -- -- 51
2020-04-07 18:00:00 18.1 8 Este 18 Sudeste 0 -- -- 44
2020-04-07 17:00:00 18.4 8 Este 16 Nordeste 0 -- -- 52
2020-04-07 16:00:00 17.5 7 Este 16 Sudeste 0 -- -- 56
2020-04-07 15:00:00 18.1 9 Este 18 Sudeste 0 -- -- 55
2020-04-07 14:00:00 18.6 10 Este 21 Nordeste 0 -- -- 55
2020-04-07 13:00:00 18.5 10 Este 21 Este 0 -- -- 51
2020-04-07 12:00:00 17.5 9 Este 22 Este 0 -- -- 60
2020-04-07 11:00:00 16.6 7 Este 19 Este 0 -- -- 62
2020-04-07 10:00:00 15 5 Nordeste 14 Nordeste 0 -- -- 82
2020-04-07 09:00:00 11.5 0 Calma 3 Sudoeste 0 -- -- 93
2020-04-07 08:00:00 8.8 0 Calma 3 Sur 0 -- -- 93
2020-04-07 07:00:00 8.6 0 Calma 5 Este 0 -- -- 93
2020-04-07 06:00:00 8.5 0 Calma 5 Este 0 -- -- 92
2020-04-07 05:00:00 8.4 0 Calma 4 Sudoeste 0 -- -- 93
2020-04-07 04:00:00 7.9 0 Calma 0 Calma 0 -- -- 91
2020-04-07 03:00:00 8.2 0 Calma 3 Sudoeste 0 -- -- 91
2020-04-07 02:00:00 8.2 0 Calma 3 Sur 0 -- -- 90
2020-04-07 01:00:00 8.8 0 Calma 3 Este 0 -- -- 88
2020-04-07 00:00:00 9.2 2 Sur 3 Sudoeste 0 -- -- 86
2020-04-06 23:00:00 9.9 0 Calma 0 Calma 0 -- -- 84
2020-04-06 22:00:00 10.8 0 Calma 3 Sur 0 -- -- 79
2020-04-06 21:00:00 12.5 0 Calma 5 Sudeste 0 -- -- 71
2020-04-06 20:00:00 14.9 4 Sudeste 14 Sudeste 0 -- -- 60
2020-04-06 19:00:00 17.6 8 Sudeste 21 Este 0 -- -- 48
2020-04-06 18:00:00 18.2 9 Este 22 Este 0 -- -- 43
2020-04-06 17:00:00 18.8 10 Este 22 Sudeste 0 -- -- 42
2020-04-06 16:00:00 19.3 10 Sudeste 21 Sudeste 0 -- -- 44
2020-04-06 15:00:00 19.4 8 Sudeste 23 Este 0 -- -- 47
2020-04-06 14:00:00 19 10 Sudeste 21 Sudeste 0 -- -- 45
2020-04-06 13:00:00 18.6 10 Este 23 Sudeste 0 -- -- 46
2020-04-06 12:00:00 18 10 Este 22 Este 0 -- -- 46
2020-04-06 11:00:00 17.4 8 Este 19 Este 0 -- -- 59
2020-04-06 10:00:00 15.4 6 Este 10 Este 0 -- -- 79
2020-04-06 09:00:00 11.6 0 Calma 2 Nordeste 0 -- -- 98
2020-04-06 08:00:00 6.9 0 Calma 3 Sudoeste 0 -- -- 95
2020-04-06 07:00:00 6.7 0 Calma 4 Sur 0 -- -- 94
2020-04-06 06:00:00 7.3 0 Calma 3 Este 0 -- -- 93
2020-04-06 05:00:00 7.9 0 Calma 6 Este 0 -- -- 93
2020-04-06 04:00:00 8.8 4 Este 7 Este 0 -- -- 94
2020-04-06 03:00:00 8.6 0 Calma 4 Sur 0 -- -- 92
2020-04-06 02:00:00 9.5 0 Calma 4 Este 0 -- -- 91
2020-04-06 01:00:00 10.1 3 Este 4 Nordeste 0 -- -- 90
2020-04-06 00:00:00 10.5 0 Calma 5 Sudeste 0 -- -- 89
2020-04-05 23:00:00 10.9 3 Sudeste 5 Este 0 -- -- 86
2020-04-05 22:00:00 11.5 0 Calma 3 Este 0 -- -- 84
2020-04-05 21:00:00 12.6 0 Calma 3 Este 0 -- -- 78
2020-04-05 20:00:00 14 3 Este 12 Este 0 -- -- 70
2020-04-05 19:00:00 15 8 Este 17 Este 0 -- -- 64
2020-04-05 18:00:00 16.7 6 Este 17 Nordeste 0 -- -- 52
2020-04-05 17:00:00 18.2 8 Este 20 Este 0 -- -- 42
2020-04-05 16:00:00 18.8 8 Este 18 Sudeste 0 -- -- 41
2020-04-05 15:00:00 18 10 Este 22 Este 0 -- -- 45
2020-04-05 14:00:00 18.4 10 Este 22 Sudeste 0 -- -- 54
2020-04-05 13:00:00 17.9 9 Este 19 Nordeste 0 -- -- 49
2020-04-05 12:00:00 17.1 8 Este 18 Este 0 -- -- 61
2020-04-05 11:00:00 16.6 6 Este 15 Nordeste 0 -- -- 69
2020-04-05 10:00:00 14.5 8 Nordeste 14 Nordeste 0 -- -- 85
2020-04-05 09:00:00 10.3 0 Calma 6 Nordeste 0 -- -- 98
2020-04-05 08:00:00 5.8 0 Calma 3 Nordeste 0 -- -- 96
2020-04-05 07:00:00 5.4 0 Calma 3 Este 0 -- -- 96
2020-04-05 06:00:00 5.2 0 Calma 0 Calma 0 -- -- 95
2020-04-05 05:00:00 5.4 0 Calma 2 Este 0 -- -- 95
2020-04-05 04:00:00 5.9 0 Calma 2 Nordeste 0 -- -- 94
2020-04-05 03:00:00 6.6 0 Calma 2 Oeste 0 -- -- 93
2020-04-05 02:00:00 6.9 0 Calma -- -- 0 -- -- 92
2020-04-05 01:00:00 7.4 0 Calma -- -- 0 -- -- 91
2020-04-05 00:00:00 7.9 0 Calma -- -- 0 -- -- 88
2020-04-04 23:00:00 9.2 0 Calma 4 Oeste 0 -- -- 87
2020-04-04 22:00:00 10.2 2 Sudeste 4 Sudeste 0 -- -- 81
2020-04-04 21:00:00 12 3 Sudeste 9 Sudeste 0 -- -- 74
2020-04-04 20:00:00 15.3 4 Sudeste 13 Sudeste 0 -- -- 59
2020-04-04 19:00:00 17.5 5 Sudeste 17 Este 0 -- -- 47
2020-04-04 18:00:00 17.7 10 Este 21 Este 0 -- -- 40
2020-04-04 17:00:00 18.3 9 Sudeste 20 Este 0 -- -- 45
2020-04-04 16:00:00 18.4 9 Este 19 Este 0 -- -- 47
2020-04-04 15:00:00 18.5 9 Este 19 Este 0 -- -- 54
2020-04-04 14:00:00 18.6 8 Este 19 Este 0 -- -- 50
2020-04-04 13:00:00 18.4 6 Sudeste 19 Este 0 -- -- 55
2020-04-04 12:00:00 16.9 5 Noroeste 13 Nordeste 0 -- -- 54
2020-04-04 11:00:00 15.3 5 Noroeste 9 Norte 0.2 -- -- 66
2020-04-04 10:00:00 12.4 3 Oeste 6 Oeste 0 -- -- 82
2020-04-04 09:00:00 7.9 0 Calma 4 Oeste 0 -- -- 95
2020-04-04 08:00:00 5.3 0 Calma 3 Sudoeste 0 -- -- 96
2020-04-04 07:00:00 4.7 2 Sudoeste 2 Sudoeste 0 -- -- 95
2020-04-04 06:00:00 5.3 0 Calma 4 Sudoeste 0 -- -- 95
2020-04-04 05:00:00 5.4 0 Calma 2 Sudoeste 0 -- -- 95
2020-04-04 04:00:00 5.7 2 Sur 4 Sur 0 -- -- 94
2020-04-04 03:00:00 6.4 3 Nordeste 4 Nordeste 0 -- -- 94
2020-04-04 02:00:00 7 0 Calma 6 Sudoeste 0 -- -- 93
2020-04-04 01:00:00 6.9 2 Oeste 5 Oeste 0 -- -- 92
2020-04-04 00:00:00 7.6 0 Calma 4 Sur 0 -- -- 91
2020-04-03 23:00:00 8.5 0 Calma 5 Nordeste 0.2 -- -- 89
2020-04-03 22:00:00 9.8 0 Calma 5 Nordeste 0 -- -- 85
2020-04-03 21:00:00 11.4 2 Nordeste 9 Norte 0 -- -- 80
2020-04-03 20:00:00 14.2 5 Norte 18 Norte 0 -- -- 67
2020-04-03 19:00:00 16.3 10 Nordeste 22 Nordeste 0 -- -- 55
2020-04-03 18:00:00 16.8 11 Nordeste 23 Nordeste 0.2 -- -- 55
2020-04-03 17:00:00 16.8 13 Norte 30 Nordeste 0 -- -- 56
2020-04-03 16:00:00 16.8 15 Nordeste 33 Nordeste 0 -- -- 67
2020-04-03 15:00:00 16.8 17 Nordeste 30 Norte 0 -- -- 67
2020-04-03 14:00:00 15.4 16 Norte 35 Noroeste 0 -- -- 69
2020-04-03 13:00:00 15.9 14 Nordeste 38 Norte 0.2 -- -- 71
2020-04-03 12:00:00 13.9 19 Norte 41 Norte 0 -- -- 74
2020-04-03 11:00:00 14.3 14 Norte 37 Nordeste 0 -- -- 73
2020-04-03 10:00:00 13 12 Nordeste 32 Nordeste 0 -- -- 79
2020-04-03 09:00:00 12.5 16 Nordeste 35 Nordeste 0 -- -- 77
2020-04-03 08:00:00 11.6 13 Nordeste 36 Nordeste 0 -- -- 84
2020-04-03 07:00:00 11.4 17 Nordeste 36 Nordeste 0 -- -- 87
2020-04-03 06:00:00 10.6 13 Nordeste 41 Nordeste 0.2 -- -- 90
2020-04-03 05:00:00 11.4 12 Norte 25 Norte 0.2 -- -- 95
2020-04-03 04:00:00 11.4 4 Norte 21 Nordeste 2 -- -- 97
2020-04-03 03:00:00 11.5 3 Norte 22 Noroeste 2.4 -- -- 97
2020-04-03 02:00:00 11.4 8 Norte 20 Noroeste 0 -- -- 94
2020-04-03 01:00:00 11.3 5 Norte 26 Norte 0.2 -- -- 93
2020-04-03 00:00:00 11.4 7 Norte 17 Norte 0 -- -- 95
2020-04-02 23:00:00 11.9 4 Nordeste 12 Nordeste 1.6 -- -- 96
2020-04-02 22:00:00 11.9 3 Norte 6 Norte 0.2 -- -- 95
2020-04-02 21:00:00 12 4 Nordeste 14 Norte 0.2 -- -- 94
2020-04-02 20:00:00 12 2 Noroeste 20 Nordeste 0.4 -- -- 93
2020-04-02 19:00:00 12.2 6 Nordeste 13 Nordeste 1.2 -- -- 92
2020-04-02 18:00:00 12 6 Nordeste 23 Noroeste 1.4 -- -- 93
2020-04-02 17:00:00 12.8 12 Noroeste 25 Noroeste 2.4 -- -- 88
2020-04-02 16:00:00 15.8 11 Este 20 Sudeste 0 -- -- 81
2020-04-02 15:00:00 15.8 3 Oeste 8 Sudoeste 0.2 -- -- 77
2020-04-02 14:00:00 13.5 2 Este 19 Nordeste 0 -- -- 89
2020-04-02 13:00:00 11.4 3 Nordeste 18 Oeste 20.2 -- -- 94
2020-04-02 12:00:00 13.8 7 Noroeste 15 Este 8 -- -- 88
2020-04-02 11:00:00 15.3 6 Noroeste 14 Sudoeste 0 -- -- 80
2020-04-02 10:00:00 15.6 9 Sudoeste 14 Oeste 0 -- -- 83
2020-04-02 09:00:00 14.6 7 Sudoeste 14 Sur 0 -- -- 88
2020-04-02 08:00:00 13.1 7 Sur 15 Sur 0 -- -- 91
2020-04-02 07:00:00 13.1 4 Sur 14 Sur 0 -- -- 93
2020-04-02 06:00:00 13 9 Sudoeste 14 Sudoeste 0 -- -- 94
2020-04-02 05:00:00 12.8 9 Sudoeste 14 Sudoeste 0 -- -- 94
2020-04-02 04:00:00 13.1 7 Sudoeste 17 Sudoeste 0 -- -- 93
2020-04-02 03:00:00 13.7 8 Sudoeste 21 Sur 0 -- -- 94
2020-04-02 02:00:00 13.8 11 Sudoeste 22 Sur 0 -- -- 93
2020-04-02 01:00:00 13.8 12 Sudoeste 20 Sudoeste 0 -- -- 93
2020-04-02 00:00:00 13.8 11 Sudoeste 20 Sur 0 -- -- 92
2020-04-01 23:00:00 14.2 14 Sudoeste 20 Sur 0 -- -- 93
2020-04-01 22:00:00 14 11 Sudoeste 23 Sudoeste 0 -- -- 91
2020-04-01 21:00:00 14.3 11 Sudoeste 26 Oeste 0 -- -- 89
2020-04-01 20:00:00 14.9 18 Sudoeste 28 Sudoeste 0 -- -- 84
2020-04-01 19:00:00 16.7 16 Sudoeste 28 Sudoeste 0 -- -- 73
2020-04-01 18:00:00 18 17 Sudoeste 28 Sur 0 -- -- 70
2020-04-01 17:00:00 19 19 Sudoeste 32 Sudoeste 0 -- -- 66
2020-04-01 16:00:00 19.3 17 Sudoeste 30 Sudoeste 0 -- -- 64
2020-04-01 15:00:00 19.3 16 Sudoeste 28 Sudoeste 0 -- -- 66
2020-04-01 14:00:00 18.9 9 Sudeste 25 Nordeste 0.2 -- -- 72
2020-04-01 13:00:00 18.3 10 Este 24 Este 0 -- -- 80
2020-04-01 12:00:00 16.6 13 Este 24 Este 0 -- -- 88
2020-04-01 11:00:00 15.3 8 Este 23 Este 0 -- -- 93
2020-04-01 10:00:00 14.8 10 Este 26 Este 0 -- -- 92
2020-04-01 09:00:00 14.3 10 Este 26 Este 0 -- -- 92
2020-04-01 08:00:00 13.9 10 Este 23 Nordeste 0 -- -- 93
2020-04-01 07:00:00 13.8 9 Este 25 Nordeste 0 -- -- 91
2020-04-01 06:00:00 13.5 7 Este 21 Este 0 -- -- 92
2020-04-01 05:00:00 13.3 9 Este 22 Este 0 -- -- 92
2020-04-01 04:00:00 13.1 10 Este 32 Este 0 -- -- 91
2020-04-01 03:00:00 13.4 12 Este 36 Este 0 -- -- 92
2020-04-01 02:00:00 14 16 Este 37 Este 0 -- -- 92
2020-04-01 01:00:00 14 14 Este 39 Este 0 -- -- 92
2020-04-01 00:00:00 14.1 15 Este 36 Este 0 -- -- 93
2020-03-31 23:00:00 14.1 16 Este 38 Este 0 -- -- 93
2020-03-31 22:00:00 14 15 Este 35 Este 0 -- -- 93
2020-03-31 21:00:00 13.9 14 Este 33 Nordeste 0 -- -- 93
2020-03-31 20:00:00 14.2 13 Este 37 Nordeste 0 -- -- 92
2020-03-31 19:00:00 14.6 11 Nordeste 36 Este 0 -- -- 91
2020-03-31 18:00:00 15.1 16 Nordeste 35 Nordeste 0.2 -- -- 89
2020-03-31 17:00:00 15.2 11 Nordeste 28 Nordeste 0.4 -- -- 93
2020-03-31 16:00:00 15 10 Este 28 Este 0 -- -- 88
2020-03-31 15:00:00 15.2 13 Este 32 Nordeste 0 -- -- 85
2020-03-31 14:00:00 15.9 14 Este 39 Nordeste 0 -- -- 81
2020-03-31 13:00:00 15.8 18 Este 42 Este 0 -- -- 81
2020-03-31 12:00:00 15.3 19 Este 41 Este 0 -- -- 84
2020-03-31 11:00:00 14.9 18 Este 45 Nordeste 0 -- -- 83
2020-03-31 10:00:00 14.1 18 Este 37 Este 0 -- -- 87
2020-03-31 09:00:00 13.8 19 Nordeste 34 Nordeste 0 -- -- 88
2020-03-31 08:00:00 13.1 17 Este 33 Este 0 -- -- 91
2020-03-31 07:00:00 13.1 14 Nordeste 28 Nordeste 0 -- -- 92
2020-03-31 06:00:00 12.9 9 Nordeste 22 Nordeste 0 -- -- 91
2020-03-31 05:00:00 12.9 5 Nordeste 16 Nordeste 0 -- -- 92
2020-03-31 04:00:00 12.7 6 Nordeste 14 Nordeste 0 -- -- 92
2020-03-31 03:00:00 12.8 4 Este 15 Este 0 -- -- 91
2020-03-31 02:00:00 12.5 7 Este 15 Este 0 -- -- 92
2020-03-31 01:00:00 11.4 0 Calma 4 Este 0 -- -- 93
2020-03-31 00:00:00 11.4 3 Sudeste 4 Sudeste 0 -- -- 92
2020-03-30 23:00:00 11.4 0 Calma 4 Este 0 -- -- 90
2020-03-30 22:00:00 12.6 3 Este 12 Sudeste 0 -- -- 87
2020-03-30 21:00:00 13.3 6 Sudeste 11 Sudeste 0 -- -- 86
2020-03-30 20:00:00 14.4 6 Sudeste 15 Sur 0 -- -- 81
2020-03-30 19:00:00 17.1 5 Sudeste 25 Sudoeste 0 -- -- 72
2020-03-30 18:00:00 17.8 14 Sudoeste 30 Sudoeste 0 -- -- 64
2020-03-30 17:00:00 17.7 13 Sudoeste 30 Sudoeste 0 -- -- 67
2020-03-30 16:00:00 17.4 15 Sudoeste 31 Sudoeste 0 -- -- 69
2020-03-30 15:00:00 17.6 13 Sudoeste 26 Sur 0 -- -- 67
2020-03-30 14:00:00 17.3 14 Sudoeste 24 Sudoeste 0 -- -- 70
2020-03-30 13:00:00 16.8 15 Sudoeste 25 Sudoeste 0 -- -- 74
2020-03-30 12:00:00 15.6 6 Este 13 Sudeste 0 -- -- 83
2020-03-30 11:00:00 14.5 4 Este 14 Sudeste 0 -- -- 88
2020-03-30 10:00:00 13.5 6 Este 9 Este 0 -- -- 92
2020-03-30 09:00:00 11.4 5 Este 10 Este 0 -- -- 97
2020-03-30 08:00:00 9.8 3 Este 6 Este 0 -- -- 96
2020-03-30 07:00:00 9 3 Este 8 Este 0 -- -- 95
2020-03-30 06:00:00 8.9 0 Calma 10 Oeste 0 -- -- 95
2020-03-30 05:00:00 9.8 8 Oeste 21 Sudoeste 0 -- -- 93
2020-03-30 04:00:00 11.6 15 Sudoeste 24 Sudoeste 0 -- -- 90
2020-03-30 03:00:00 11.6 13 Sudoeste 22 Sudoeste 0 -- -- 90
2020-03-30 02:00:00 12.1 15 Sudoeste 24 Sudoeste 0 -- -- 89
2020-03-30 01:00:00 12.3 15 Sudoeste 26 Sudoeste 0 -- -- 90
2020-03-30 00:00:00 12.4 15 Sudoeste 21 Sudoeste 0 -- -- 91
2020-03-29 23:00:00 12.2 13 Sudoeste 22 Sudoeste 0 -- -- 89
2020-03-29 22:00:00 12.6 14 Sudoeste 29 Sur 0 -- -- 88
2020-03-29 21:00:00 13.1 19 Sudoeste 28 Sudoeste 0 -- -- 83
2020-03-29 20:00:00 14.7 17 Sudoeste 28 Sudoeste 0 -- -- 71
2020-03-29 19:00:00 17.5 18 Sudoeste 28 Sudoeste 0 -- -- 48
2020-03-29 18:00:00 17.6 6 Sudeste 26 Sudeste 0 -- -- 56
2020-03-29 17:00:00 14.9 10 Este 21 Este 0.2 -- -- 68
2020-03-29 16:00:00 18 9 Sudoeste 22 Sudoeste 0 -- -- 53
2020-03-29 15:00:00 19.1 3 Este 13 Oeste 0 -- -- 43
2020-03-29 14:00:00 19.3 4 Sudoeste 13 Noroeste 0 -- -- 43
2020-03-29 13:00:00 18 4 Sudoeste 16 Sudoeste 0 -- -- 50
2020-03-29 12:00:00 16.2 7 Sudoeste 12 Oeste 0 -- -- 55
2020-03-29 11:00:00 15 6 Oeste 10 Sudoeste 0 -- -- 69
2020-03-29 10:00:00 12.3 5 Oeste 8 Oeste 0 -- -- 83
2020-03-29 09:00:00 8.8 0 Calma 3 Sudoeste 0 -- -- 97
2020-03-29 08:00:00 6.8 0 Calma 3 Sudoeste 0 -- -- 94
2020-03-29 07:00:00 7.8 0 Calma 3 Sudoeste 0 -- -- 93
2020-03-29 06:00:00 8.9 0 Calma 4 Oeste 0 -- -- 94
2020-03-29 05:00:00 9.1 0 Calma 4 Oeste 0 -- -- 93
2020-03-29 03:00:00 10 3 Sudoeste 5 Sudoeste 0 -- -- 91
2020-03-29 01:00:00 10.5 3 Sudoeste 8 Sudoeste 0 -- -- 92
2020-03-29 00:00:00 10.7 2 Sudoeste 5 Sudoeste 0 -- -- 92
2020-03-28 23:00:00 10.6 0 Calma 5 Sudoeste 0 -- -- 91
2020-03-28 22:00:00 10.6 0 Calma 5 Sudoeste 0 -- -- 89
2020-03-28 21:00:00 11.8 3 Oeste 9 Norte 0 -- -- 87
2020-03-28 20:00:00 12.1 4 Nordeste 12 Nordeste 0 -- -- 86
2020-03-28 19:00:00 12.6 5 Noroeste 15 Norte 0 -- -- 83
2020-03-28 18:00:00 13.7 6 Norte 18 Norte 0 -- -- 78
2020-03-28 17:00:00 14.1 9 Norte 24 Norte 0.4 -- -- 77
2020-03-28 16:00:00 13.6 9 Nordeste 28 Norte 0.6 -- -- 76
2020-03-28 15:00:00 16 7 Norte 20 Norte 0 -- -- 64
2020-03-28 14:00:00 15.1 10 Norte 21 Norte 0 -- -- 70
2020-03-28 13:00:00 15.2 6 Norte 19 Norte 0 -- -- 71
2020-03-28 12:00:00 14.7 9 Norte 21 Norte 0 -- -- 73
2020-03-28 11:00:00 13.9 9 Norte 18 Noroeste 0 -- -- 77
2020-03-28 10:00:00 11.8 7 Noroeste 16 Noroeste 0 -- -- 88
2020-03-28 09:00:00 10.6 6 Noroeste 23 Norte 0 -- -- 92
2020-03-28 08:00:00 10.1 8 Noroeste 17 Noroeste 0 -- -- 88
2020-03-28 07:00:00 8.5 3 Sudoeste 5 Sudoeste 0 -- -- 93
2020-03-28 06:00:00 7.9 2 Oeste 5 Sudoeste 0.2 -- -- 92
2020-03-28 05:00:00 8.3 3 Sudoeste 8 Noroeste 0.4 -- -- 92
2020-03-28 04:00:00 9.1 3 Oeste 8 Oeste 0.4 -- -- 90
2020-03-28 03:00:00 8.8 0 Calma 4 Sudoeste 0 -- -- 89
2020-03-28 02:00:00 8.7 3 Oeste 6 Oeste 0 -- -- 88
2020-03-28 01:00:00 8.9 3 Oeste 5 Nordeste 0 -- -- 87
2020-03-28 00:00:00 8.9 3 Nordeste 16 Norte 0 -- -- 84
2020-03-27 23:00:00 10 9 Norte 23 Norte 0 -- -- 81
2020-03-27 22:00:00 9.9 6 Norte 24 Norte 0 -- -- 83
2020-03-27 21:00:00 9.7 10 Norte 24 Norte 0 -- -- 87
2020-03-27 20:00:00 9.1 4 Norte 27 Norte 0 -- -- 83
2020-03-27 19:00:00 10.7 10 Norte 25 Norte 0 -- -- 73
2020-03-27 18:00:00 13 8 Norte 24 Nordeste 0 -- -- 52
2020-03-27 17:00:00 14 10 Norte 27 Nordeste 0 -- -- 56
2020-03-27 16:00:00 14 13 Noroeste 27 Norte 0 -- -- 51
2020-03-27 15:00:00 14.1 12 Norte 22 Noroeste 0.2 -- -- 55
2020-03-27 14:00:00 14.8 9 Norte 20 Norte 0 -- -- 47
2020-03-27 13:00:00 13.7 12 Noroeste 28 Norte 0.2 -- -- 40
2020-03-27 12:00:00 13.4 13 Norte 27 Norte 0.2 -- -- 58
2020-03-27 11:00:00 13 10 Norte 23 Norte 0 -- -- 62
2020-03-27 10:00:00 11.8 9 Norte 20 Nordeste 0.2 -- -- 65
2020-03-27 09:00:00 9.4 0 Calma 5 Noroeste 0.2 -- -- 81
2020-03-27 08:00:00 5.5 0 Calma 3 Sudoeste 0 -- -- 98
2020-03-27 07:00:00 2.8 0 Calma 4 Sudoeste 0 -- -- 97
2020-03-27 06:00:00 2.7 0 Calma 2 Este 0 -- -- 96
2020-03-27 05:00:00 3.3 0 Calma 4 Nordeste 0 -- -- 96
2020-03-27 04:00:00 3.4 0 Calma 4 Nordeste 0 -- -- 94
2020-03-27 03:00:00 4.1 0 Calma 6 Nordeste 0.2 -- -- 94
2020-03-27 02:00:00 4.9 4 Nordeste 13 Nordeste 0 -- -- 92
2020-03-27 01:00:00 5.7 6 Nordeste 19 Nordeste 0 -- -- 91
2020-03-27 00:00:00 7.1 6 Nordeste 18 Nordeste 2 -- -- 95
2020-03-26 23:00:00 7.3 2 Norte 10 Nordeste 3.4 -- -- 96
2020-03-26 22:00:00 6.9 10 Nordeste 26 Nordeste 3.4 -- -- 95
2020-03-26 21:00:00 7.2 6 Nordeste 19 Nordeste 3 -- -- 95
2020-03-26 20:00:00 7.3 9 Nordeste 21 Este 2.8 -- -- 94
2020-03-26 19:00:00 7.5 5 Nordeste 12 Nordeste 0.6 -- -- 93
2020-03-26 18:00:00 7.2 3 Nordeste 23 Nordeste 1.8 -- -- 92
2020-03-26 17:00:00 7.5 10 Nordeste 22 Este 1.2 -- -- 90
2020-03-26 16:00:00 7.7 7 Norte 15 Norte 1.2 -- -- 90
2020-03-26 15:00:00 8 7 Nordeste 20 Nordeste 0.8 -- -- 92
2020-03-26 14:00:00 8.4 10 Nordeste 22 Nordeste 0.8 -- -- 90
2020-03-26 13:00:00 8.6 6 Norte 16 Nordeste 2.4 -- -- 93
2020-03-26 12:00:00 8.3 4 Sudoeste 19 Sudoeste 0.2 -- -- 89
2020-03-26 11:00:00 10.5 6 Sur 16 Sudoeste 0 -- -- 80
2020-03-26 10:00:00 11.2 0 Calma 9 Sudeste 0 -- -- 74
2020-03-26 09:00:00 10 3 Sur 7 Sur 0 -- -- 82
2020-03-26 08:00:00 7.5 0 Calma 14 Sudoeste 0 -- -- 90
2020-03-26 07:00:00 5.7 5 Sudoeste 17 Sudoeste 0 -- -- 89
2020-03-26 06:00:00 6.9 11 Sudoeste 18 Sudoeste 0 -- -- 85
2020-03-26 05:00:00 4.3 2 Norte 9 Oeste 0 -- -- 93
2020-03-26 04:00:00 3.1 0 Calma 5 Nordeste 0.2 -- -- 90
2020-03-26 03:00:00 3.9 3 Sudoeste 6 Oeste 0 -- -- 90
2020-03-26 02:00:00 4.5 0 Calma 2 Este 0 -- -- 89
2020-03-26 01:00:00 4.5 0 Calma 2 Nordeste 0 -- -- 90
2020-03-26 00:00:00 3.6 0 Calma 4 Nordeste 0 -- -- 88
2020-03-25 23:00:00 3.8 0 Calma 2 Sur 0 -- -- 85
2020-03-25 22:00:00 4.5 0 Calma 2 Sur 0 -- -- 82
2020-03-25 21:00:00 5.5 0 Calma 3 Sudeste 0 -- -- 78
2020-03-25 20:00:00 7.4 2 Sudeste 4 Nordeste 0.2 -- -- 70
2020-03-25 19:00:00 9.9 3 Nordeste 15 Nordeste 0 -- -- 60
2020-03-25 18:00:00 12.7 11 Nordeste 23 Nordeste 0 -- -- 50
2020-03-25 17:00:00 13 13 Nordeste 27 Nordeste 0 -- -- 44
2020-03-25 16:00:00 13.1 12 Nordeste 29 Norte 0 -- -- 54
2020-03-25 15:00:00 13.5 17 Nordeste 35 Nordeste 0 -- -- 50
2020-03-25 14:00:00 14.4 13 Norte 30 Norte 0 -- -- 49
2020-03-25 13:00:00 13.4 10 Nordeste 23 Nordeste 0.2 -- -- 53
2020-03-25 12:00:00 14 9 Nordeste 28 Nordeste 0 -- -- 51
2020-03-25 11:00:00 13.7 15 Nordeste 23 Nordeste 0 -- -- 49
2020-03-25 10:00:00 11.5 11 Nordeste 23 Norte 0 -- -- 62
2020-03-25 09:00:00 9.3 7 Norte 24 Norte 0 -- -- 76
2020-03-25 08:00:00 8.5 10 Nordeste 18 Nordeste 0 -- -- 80
2020-03-25 07:00:00 5.4 0 Calma 6 Nordeste 0 -- -- 77
2020-03-25 06:00:00 6.3 4 Nordeste 21 Este 0 -- -- 70
2020-03-25 05:00:00 7.5 9 Nordeste 19 Nordeste 0 -- -- 67
2020-03-25 04:00:00 7.9 10 Nordeste 22 Nordeste 0 -- -- 66
2020-03-25 03:00:00 7.6 10 Nordeste 24 Nordeste 0 -- -- 70
2020-03-25 02:00:00 7.7 9 Nordeste 26 Nordeste 0 -- -- 77
2020-03-25 01:00:00 7.9 13 Nordeste 34 Nordeste 0 -- -- 80
2020-03-25 00:00:00 9.4 11 Nordeste 26 Nordeste 0 -- -- 71
2020-03-24 23:00:00 9.3 13 Nordeste 31 Nordeste 0 -- -- 70
2020-03-24 22:00:00 10.3 16 Nordeste 33 Nordeste 0 -- -- 67
2020-03-24 21:00:00 9.7 14 Nordeste 30 Nordeste 0 -- -- 69
2020-03-24 20:00:00 10.3 18 Nordeste 40 Nordeste 0 -- -- 66
2020-03-24 19:00:00 10.6 18 Nordeste 34 Nordeste 0 -- -- 64
2020-03-24 18:00:00 11.8 16 Nordeste 39 Este 0 -- -- 66
2020-03-24 17:00:00 12.7 19 Nordeste 44 Este 0 -- -- 62
2020-03-24 16:00:00 13 22 Nordeste 50 Nordeste 0.2 -- -- 68
2020-03-24 15:00:00 13.6 19 Este 45 Este 0 -- -- 72
2020-03-24 14:00:00 13 19 Nordeste 46 Nordeste 0 -- -- 72
2020-03-24 13:00:00 13 20 Nordeste 43 Nordeste 0 -- -- 80
2020-03-24 12:00:00 12.8 20 Nordeste 39 Nordeste 0 -- -- 80
2020-03-24 11:00:00 13.5 23 Nordeste 42 Este 0.4 -- -- 80
2020-03-24 10:00:00 13.1 20 Nordeste 36 Nordeste 0.2 -- -- 85
2020-03-24 09:00:00 13.2 18 Nordeste 34 Nordeste 0 -- -- 85
2020-03-24 08:00:00 12.6 14 Nordeste 28 Este 0 -- -- 84
2020-03-24 07:00:00 12.4 14 Nordeste 33 Este 0 -- -- 85
2020-03-24 06:00:00 12.7 18 Nordeste 36 Nordeste 0 -- -- 87
2020-03-24 05:00:00 12.8 15 Nordeste 33 Nordeste 0 -- -- 90
2020-03-24 04:00:00 12.9 11 Nordeste 31 Nordeste 0 -- -- 90
2020-03-24 03:00:00 12.9 13 Nordeste 31 Nordeste 0 -- -- 89
2020-03-24 02:00:00 13.1 14 Nordeste 28 Nordeste 0 -- -- 90
2020-03-24 01:00:00 12.9 12 Nordeste 27 Nordeste 0 -- -- 91
2020-03-24 00:00:00 13.3 10 Nordeste 22 Nordeste 0 -- -- 89
2020-03-23 23:00:00 12.8 9 Nordeste 21 Nordeste 0 -- -- 88
2020-03-23 22:00:00 12.7 9 Nordeste 20 Nordeste 0 -- -- 87
2020-03-23 21:00:00 12.9 10 Nordeste 23 Este 0 -- -- 87
2020-03-23 20:00:00 12.9 8 Nordeste 22 Nordeste 0 -- -- 88
2020-03-23 19:00:00 14.1 7 Nordeste 25 Nordeste 0 -- -- 83
2020-03-23 18:00:00 15.7 13 Nordeste 25 Nordeste 0 -- -- 76
2020-03-23 17:00:00 16.8 14 Nordeste 28 Nordeste 0 -- -- 72
2020-03-23 16:00:00 17.5 13 Este 30 Nordeste 0 -- -- 71
2020-03-23 15:00:00 18.1 15 Nordeste 26 Nordeste 0 -- -- 75
2020-03-23 14:00:00 18 12 Este 24 Este 0.2 -- -- 71
2020-03-23 13:00:00 17.2 9 Este 22 Sudeste 0 -- -- 72
2020-03-23 12:00:00 17.3 9 Este 24 Este 0 -- -- 76
2020-03-23 11:00:00 16.8 8 Este 21 Este 0 -- -- 78
2020-03-23 10:00:00 15.7 8 Este 18 Este 0 -- -- 82
2020-03-23 09:00:00 14.2 5 Este 16 Este 0 -- -- 98
2020-03-23 08:00:00 11.7 0 Calma 5 Este 0 -- -- 100
2020-03-23 07:00:00 9.4 2 Este 4 Este 0 -- -- 98
2020-03-23 06:00:00 8.3 0 Calma 4 Nordeste 0 -- -- 98
2020-03-23 05:00:00 9 0 Calma 3 Sudoeste 0 -- -- 98
2020-03-23 04:00:00 9.3 0 Calma 4 Oeste 0 -- -- 97
2020-03-23 03:00:00 9.3 3 Sudeste 4 Sudeste 0 -- -- 97
2020-03-23 02:00:00 9.2 2 Sudeste 5 Este 0 -- -- 98
2020-03-23 01:00:00 8.8 2 Este 5 Sudeste 0 -- -- 97
2020-03-23 00:00:00 9 0 Calma 3 Sudeste 0 -- -- 97
2020-03-22 23:00:00 9.5 0 Calma 6 Nordeste 0 -- -- 96
2020-03-22 22:00:00 10.4 2 Sudoeste 5 Nordeste 0 -- -- 96
2020-03-22 21:00:00 11.4 0 Calma 3 Este 0 -- -- 94
2020-03-22 20:00:00 12.5 3 Este 10 Sudeste 0.2 -- -- 93
2020-03-22 19:00:00 13.6 4 Sudeste 17 Este 0 -- -- 92
2020-03-22 18:00:00 14.5 6 Este 17 Este 0 -- -- 90
2020-03-22 17:00:00 15.8 7 Este 13 Sudeste 0 -- -- 84
2020-03-22 16:00:00 14 5 Noroeste 23 Oeste 0.6 -- -- 90
2020-03-22 15:00:00 12.6 3 Este 8 Sudeste 8.4 -- -- 93
2020-03-22 14:00:00 12.7 3 Este 24 Este 4.4 -- -- 93
2020-03-22 13:00:00 13.3 4 Noroeste 22 Oeste 4.4 -- -- 90
2020-03-22 12:00:00 13.4 2 Sudeste 10 Norte 5 -- -- 93
2020-03-22 11:00:00 12.9 2 Norte 15 Nordeste 0.2 -- -- 88
2020-03-22 10:00:00 15.3 5 Este 13 Nordeste 0 -- -- 90
2020-03-22 09:00:00 14.4 4 Este 11 Nordeste 0 -- -- 97
2020-03-22 08:00:00 12.1 4 Sudoeste 5 Sur 0 -- -- 97
2020-03-22 07:00:00 11.5 0 Calma 3 Nordeste 0 -- -- 96
2020-03-22 06:00:00 11.9 0 Calma 3 Sudoeste 0 -- -- 96
2020-03-22 05:00:00 11.8 0 Calma 5 Sudoeste 0 -- -- 97
2020-03-22 04:00:00 11.3 0 Calma 6 Sudoeste 0 -- -- 96
2020-03-22 03:00:00 11 3 Sudoeste 5 Sudoeste 0 -- -- 97
2020-03-22 02:00:00 10.6 4 Sudoeste 6 Sudoeste 0 -- -- 96
2020-03-22 01:00:00 9.9 4 Sudoeste 7 Sudoeste 0 -- -- 95
2020-03-22 00:00:00 10.2 0 Calma 5 Nordeste 0 -- -- 93
2020-03-21 23:00:00 10.8 0 Calma 4 Nordeste 0 -- -- 93
2020-03-21 22:00:00 11.5 2 Este 5 Nordeste 0 -- -- 92
2020-03-21 21:00:00 12.5 0 Calma 4 Nordeste 0 -- -- 90
2020-03-21 20:00:00 13.1 0 Calma 14 Este 0 -- -- 88
2020-03-21 19:00:00 14 6 Nordeste 19 Nordeste 0 -- -- 85
2020-03-21 18:00:00 15.4 9 Nordeste 22 Nordeste 0 -- -- 79
2020-03-21 17:00:00 16.1 10 Nordeste 27 Nordeste 0 -- -- 73
2020-03-21 16:00:00 17.1 9 Este 24 Nordeste 0 -- -- 68
2020-03-21 15:00:00 16.2 9 Este 27 Este 0 -- -- 75
2020-03-21 14:00:00 17.2 11 Nordeste 28 Nordeste 0 -- -- 72
2020-03-21 13:00:00 18.1 15 Nordeste 30 Nordeste 0 -- -- 69
2020-03-21 12:00:00 16.8 13 Nordeste 32 Nordeste 0 -- -- 72
2020-03-21 11:00:00 17.1 12 Nordeste 26 Nordeste 0 -- -- 73
2020-03-21 10:00:00 15.3 10 Nordeste 22 Nordeste 0 -- -- 86
2020-03-21 09:00:00 14.9 11 Nordeste 20 Nordeste 0 -- -- 87
2020-03-21 08:00:00 12.2 4 Nordeste 8 Nordeste 0 -- -- 95
2020-03-21 07:00:00 11.1 3 Nordeste 7 Nordeste 0 -- -- 94
2020-03-21 06:00:00 10.9 0 Calma 4 Nordeste 0 -- -- 94
2020-03-21 05:00:00 10.9 3 Nordeste 10 Nordeste 0 -- -- 93
2020-03-21 04:00:00 10.9 4 Nordeste 10 Nordeste 0 -- -- 92
2020-03-21 03:00:00 11.5 3 Nordeste 10 Nordeste 0 -- -- 90
2020-03-21 02:00:00 12.2 7 Nordeste 17 Nordeste 0 -- -- 90
2020-03-21 01:00:00 11.7 6 Nordeste 14 Nordeste 0 -- -- 91
2020-03-21 00:00:00 11.5 6 Nordeste 17 Nordeste 0 -- -- 89
2020-03-20 23:00:00 11.8 8 Nordeste 15 Nordeste 0 -- -- 90
2020-03-20 22:00:00 12 8 Nordeste 20 Nordeste 0 -- -- 87
2020-03-20 21:00:00 12.2 7 Nordeste 13 Nordeste 0 -- -- 88
2020-03-20 20:00:00 12.1 0 Calma 15 Nordeste 0 -- -- 85
2020-03-20 19:00:00 13.3 8 Nordeste 30 Este 0 -- -- 83
2020-03-20 18:00:00 14.5 11 Nordeste 27 Nordeste 0 -- -- 77
2020-03-20 17:00:00 15.2 10 Nordeste 33 Nordeste 0 -- -- 76
2020-03-20 16:00:00 16.4 16 Nordeste 31 Nordeste 0 -- -- 74
2020-03-20 15:00:00 16.6 15 Nordeste 31 Nordeste 0 -- -- 71
2020-03-20 14:00:00 17.3 17 Nordeste 32 Nordeste 0 -- -- 65
2020-03-20 13:00:00 16.7 19 Este 40 Nordeste 0 -- -- 66
2020-03-20 12:00:00 15.7 20 Nordeste 37 Nordeste 0 -- -- 71
2020-03-20 11:00:00 15.1 21 Nordeste 38 Nordeste 0 -- -- 70
2020-03-20 10:00:00 15.5 19 Nordeste 33 Nordeste 0 -- -- 68
2020-03-20 09:00:00 14.4 14 Nordeste 31 Nordeste 0 -- -- 78
2020-03-20 08:00:00 11.3 7 Nordeste 15 Nordeste 0 -- -- 96
2020-03-20 07:00:00 8.6 0 Calma 4 Sudoeste 0 -- -- 96
2020-03-20 06:00:00 8.7 0 Calma 4 Sudoeste 0 -- -- 96
2020-03-20 05:00:00 8 0 Calma -- -- 0 -- -- 95
2020-03-20 04:00:00 8.7 0 Calma 2 Sur 0 -- -- 95
2020-03-20 03:00:00 8.3 0 Calma 0 Calma 0 -- -- 94
2020-03-20 02:00:00 8.3 0 Calma 3 Nordeste 0 -- -- 93
2020-03-20 01:00:00 9.2 0 Calma 3 Norte 0 -- -- 93
2020-03-20 00:00:00 9.5 0 Calma 3 Nordeste 0 -- -- 93
2020-03-19 23:00:00 9.9 2 Norte 3 Norte 0 -- -- 92
2020-03-19 22:00:00 10.3 0 Calma 2 Nordeste 0 -- -- 91
2020-03-19 21:00:00 10.5 0 Calma 5 Nordeste 0 -- -- 88
2020-03-19 20:00:00 11.5 4 Nordeste 11 Nordeste 0 -- -- 85
2020-03-19 19:00:00 13 5 Este 17 Este 0 -- -- 81
2020-03-19 18:00:00 15.3 8 Nordeste 21 Nordeste 0 -- -- 72
2020-03-19 17:00:00 16.1 9 Este 21 Este 0 -- -- 68
2020-03-19 16:00:00 16.9 9 Este 24 Nordeste 0 -- -- 69
2020-03-19 15:00:00 17.5 9 Este 22 Este 0 -- -- 65
2020-03-19 14:00:00 16.9 10 Este 24 Este 0 -- -- 64
2020-03-19 13:00:00 16.9 11 Este 22 Nordeste 0 -- -- 65
2020-03-19 12:00:00 15.6 9 Nordeste 21 Nordeste 0 -- -- 70
2020-03-19 11:00:00 15 9 Nordeste 19 Este 0 -- -- 76
2020-03-19 10:00:00 14.3 7 Este 17 Este 0 -- -- 85
2020-03-19 09:00:00 12.4 4 Nordeste 10 Nordeste 0 -- -- 98
2020-03-19 08:00:00 9.9 0 Calma 3 Sudoeste 0 -- -- 98
2020-03-19 07:00:00 8.7 0 Calma 3 Este 0 -- -- 97
2020-03-19 06:00:00 8.9 0 Calma 4 Este 0 -- -- 96
2020-03-19 05:00:00 8.6 0 Calma 3 Nordeste 0 -- -- 96
2020-03-19 04:00:00 8.7 0 Calma 2 Sur 0 -- -- 95
2020-03-19 03:00:00 9.4 0 Calma 0 Calma 0 -- -- 95
2020-03-19 02:00:00 9.8 0 Calma 6 Nordeste 0 -- -- 95
2020-03-19 01:00:00 10.4 0 Calma 5 Nordeste 0 -- -- 94
2020-03-19 00:00:00 10.8 2 Nordeste 4 Nordeste 0 -- -- 93
2020-03-18 23:00:00 11.3 0 Calma -- -- 0 -- -- 92
2020-03-18 22:00:00 12 0 Calma -- -- 0 -- -- 91
2020-03-18 21:00:00 12.5 0 Calma 9 Nordeste 0 -- -- 89
2020-03-18 20:00:00 13 3 Este 10 Nordeste 0 -- -- 88
2020-03-18 19:00:00 13.6 4 Este 21 Nordeste 0 -- -- 84
2020-03-18 18:00:00 14.5 11 Nordeste 26 Nordeste 0 -- -- 80
2020-03-18 17:00:00 15.7 12 Nordeste 26 Nordeste 0 -- -- 75
2020-03-18 16:00:00 16.6 13 Nordeste 31 Este 0 -- -- 73
2020-03-18 15:00:00 17.3 14 Nordeste 26 Nordeste 0 -- -- 69
2020-03-18 14:00:00 17.3 14 Nordeste 27 Nordeste 0 -- -- 73
2020-03-18 13:00:00 17.6 14 Nordeste 29 Nordeste 0 -- -- 74
2020-03-18 12:00:00 16.6 15 Nordeste 27 Nordeste 0 -- -- 78
2020-03-18 11:00:00 15.8 12 Este 28 Nordeste 0 -- -- 81
2020-03-18 10:00:00 15.3 12 Nordeste 22 Nordeste 0 -- -- 85
2020-03-18 09:00:00 13.7 9 Nordeste 18 Nordeste 0 -- -- 90
2020-03-18 08:00:00 12.5 10 Nordeste 18 Nordeste 0 -- -- 94
2020-03-18 07:00:00 11 4 Nordeste 9 Nordeste 0 -- -- 94
2020-03-18 06:00:00 11.4 5 Nordeste 11 Nordeste 0 -- -- 94
2020-03-18 05:00:00 11.5 5 Nordeste 13 Norte 0 -- -- 93
2020-03-18 04:00:00 11.7 7 Nordeste 12 Nordeste 0 -- -- 91
2020-03-18 03:00:00 12.2 6 Nordeste 19 Norte 0 -- -- 89
2020-03-18 02:00:00 12.7 10 Nordeste 22 Nordeste 0 -- -- 86
2020-03-18 01:00:00 13.1 12 Nordeste 25 Nordeste 0 -- -- 83
2020-03-18 00:00:00 13.1 13 Nordeste 26 Nordeste 0 -- -- 81
2020-03-17 23:00:00 13.2 14 Nordeste 26 Nordeste 0 -- -- 85
2020-03-17 22:00:00 13.5 15 Nordeste 32 Este 0 -- -- 85
2020-03-17 21:00:00 13.9 21 Nordeste 37 Nordeste 0 -- -- 86
2020-03-17 20:00:00 13.9 19 Nordeste 39 Nordeste 0 -- -- 87
2020-03-17 19:00:00 14.1 18 Nordeste 37 Nordeste 0 -- -- 87
2020-03-17 18:00:00 14.5 19 Nordeste 39 Este 0 -- -- 85
2020-03-17 17:00:00 14.9 18 Nordeste 42 Nordeste 0 -- -- 85
2020-03-17 16:00:00 15.4 22 Nordeste 44 Nordeste 0 -- -- 82
2020-03-17 15:00:00 15.9 22 Nordeste 48 Nordeste 0.2 -- -- 80
2020-03-17 14:00:00 16.8 20 Este 41 Nordeste 0 -- -- 77
2020-03-17 13:00:00 16.4 17 Este 38 Este 0 -- -- 81
2020-03-17 12:00:00 15.4 16 Nordeste 32 Este 0 -- -- 87
2020-03-17 11:00:00 15.3 13 Nordeste 33 Nordeste 0 -- -- 89
2020-03-17 10:00:00 15 16 Nordeste 33 Nordeste 0 -- -- 91
2020-03-17 09:00:00 14.7 15 Nordeste 32 Nordeste 0 -- -- 92
2020-03-17 08:00:00 14.5 13 Nordeste 30 Este 0 -- -- 93
2020-03-17 07:00:00 14.5 18 Nordeste 32 Este 0 -- -- 94
2020-03-17 06:00:00 14.5 10 Nordeste 24 Nordeste 0 -- -- 94
2020-03-17 05:00:00 14.6 9 Nordeste 24 Este 0 -- -- 95
2020-03-17 04:00:00 14.6 11 Nordeste 27 Nordeste 0 -- -- 95
2020-03-17 03:00:00 14.6 12 Nordeste 22 Nordeste 0 -- -- 95
2020-03-17 02:00:00 14.7 11 Nordeste 23 Nordeste 0 -- -- 94
2020-03-17 01:00:00 14.7 8 Nordeste 22 Este 0 -- -- 94
2020-03-17 00:00:00 14.7 10 Este 23 Nordeste 0 -- -- 93
2020-03-16 23:00:00 14.7 12 Este 27 Este 0 -- -- 93
2020-03-16 22:00:00 14.7 11 Este 27 Este 0 -- -- 92
2020-03-16 21:00:00 14.7 10 Este 24 Este 0 -- -- 92
2020-03-16 20:00:00 14.8 8 Este 21 Este 0 -- -- 92
2020-03-16 19:00:00 15 10 Este 31 Este 0 -- -- 91
2020-03-16 18:00:00 15.4 10 Este 24 Este 0 -- -- 90
2020-03-16 17:00:00 15.6 10 Este 26 Este 0 -- -- 88
2020-03-16 16:00:00 16.5 14 Este 34 Este 0 -- -- 85
2020-03-16 15:00:00 16.7 18 Este 37 Este 0 -- -- 85
2020-03-16 14:00:00 15.9 18 Este 37 Este 0 -- -- 87
2020-03-16 13:00:00 15.4 18 Este 35 Este 0 -- -- 89
2020-03-16 12:00:00 15 13 Este 35 Este 0 -- -- 91
2020-03-16 11:00:00 15 17 Este 36 Sudeste 0 -- -- 92
2020-03-16 10:00:00 14.6 18 Este 38 Este 0 -- -- 93
2020-03-16 09:00:00 14.4 15 Este 33 Este 0 -- -- 95
2020-03-16 08:00:00 13.9 11 Este 23 Este 0.4 -- -- 94
2020-03-16 07:00:00 13.8 10 Este 21 Este 0 -- -- 92
2020-03-16 06:00:00 13.3 8 Este 19 Este 0 -- -- 92
2020-03-16 05:00:00 13 9 Nordeste 20 Este 0 -- -- 93
2020-03-16 04:00:00 12.5 7 Nordeste 16 Este 0 -- -- 94
2020-03-16 03:00:00 11.3 6 Este 18 Este 0 -- -- 96
2020-03-16 02:00:00 10.2 3 Este 9 Nordeste 0 -- -- 96
2020-03-16 01:00:00 9.6 3 Nordeste 6 Nordeste 0 -- -- 94
2020-03-16 00:00:00 10.5 4 Este 8 Este 0 -- -- 94
2020-03-15 23:00:00 10.3 3 Este 5 Este 0 -- -- 92
2020-03-15 22:00:00 10.6 2 Este 7 Este 0 -- -- 92
2020-03-15 21:00:00 10.9 0 Calma 5 Este 0 -- -- 89
2020-03-15 20:00:00 12.2 2 Este 6 Este 0 -- -- 87
2020-03-15 19:00:00 13.4 4 Este 22 Este 0 -- -- 83
2020-03-15 18:00:00 15.3 9 Este 22 Este 0 -- -- 75
2020-03-15 17:00:00 16.3 11 Este 21 Este 0 -- -- 69
2020-03-15 16:00:00 17.2 9 Este 18 Sudeste 0 -- -- 67
2020-03-15 15:00:00 17.6 7 Este 18 Este 0 -- -- 66
2020-03-15 14:00:00 17.3 9 Este 21 Este 0 -- -- 67
2020-03-15 13:00:00 16.6 10 Este 21 Este 0 -- -- 70
2020-03-15 12:00:00 16.7 8 Este 20 Este 0 -- -- 71
2020-03-15 11:00:00 15.7 8 Este 18 Este 0 -- -- 78
2020-03-15 10:00:00 15.6 6 Este 14 Este 0 -- -- 81
2020-03-15 09:00:00 12 0 Calma 3 Norte 0 -- -- 94
2020-03-15 08:00:00 8 0 Calma 2 Sudoeste 0 -- -- 98
2020-03-15 07:00:00 6.3 0 Calma 2 Norte 0 -- -- 96
2020-03-15 06:00:00 6.3 0 Calma -- -- 0 -- -- 96
2020-03-15 05:00:00 6.6 0 Calma 3 Este 0 -- -- 95
2020-03-15 04:00:00 6.7 0 Calma 0 Calma 0 -- -- 94
2020-03-15 03:00:00 7 0 Calma -- -- 0 -- -- 94
2020-03-15 02:00:00 7.4 0 Calma -- -- 0 -- -- 93
2020-03-15 01:00:00 7.9 0 Calma 0 Calma 0 -- -- 92
2020-03-15 00:00:00 8.5 0 Calma 3 Nordeste 0 -- -- 91
2020-03-14 23:00:00 9.1 0 Calma 6 Sur 0 -- -- 91
2020-03-14 22:00:00 9.4 0 Calma 3 Nordeste 0 -- -- 89
2020-03-14 21:00:00 10.1 0 Calma 2 Nordeste 0 -- -- 86
2020-03-14 20:00:00 11.5 2 Este 8 Este 0 -- -- 81
2020-03-14 19:00:00 13.3 4 Sudeste 12 Sudeste 0 -- -- 74
2020-03-14 18:00:00 14.4 8 Este 16 Este 0 -- -- 69
2020-03-14 17:00:00 15.1 8 Este 20 Este 0 -- -- 68
2020-03-14 16:00:00 17.2 10 Este 22 Este 0 -- -- 62
2020-03-14 15:00:00 19.6 7 Este 15 Oeste 0 -- -- 56
2020-03-14 14:00:00 19 4 Oeste 11 Este 0 -- -- 55
2020-03-14 13:00:00 18.2 6 Sur 17 Sur 0 -- -- 57
2020-03-14 12:00:00 17.6 7 Este 18 Nordeste 0 -- -- 59
2020-03-14 11:00:00 16.4 8 Nordeste 20 Nordeste 0 -- -- 67
2020-03-14 10:00:00 14.7 9 Nordeste 22 Nordeste 0 -- -- 74
2020-03-14 09:00:00 13.5 3 Nordeste 8 Nordeste 0 -- -- 92
2020-03-14 08:00:00 9.6 2 Nordeste 3 Nordeste 0 -- -- 96
2020-03-14 07:00:00 9.4 0 Calma 4 Este 0 -- -- 94
2020-03-14 06:00:00 10.2 2 Sudoeste 10 Sur 0 -- -- 93
2020-03-14 05:00:00 10.4 9 Sudoeste 16 Sudoeste 2 -- -- 92
2020-03-14 04:00:00 10.8 5 Nordeste 14 Nordeste 0.8 -- -- 90
2020-03-14 03:00:00 10.8 4 Sudeste 9 Este 1.2 -- -- 88
2020-03-14 02:00:00 11 3 Sudoeste 7 Oeste 0 -- -- 87
2020-03-14 01:00:00 10.4 0 Calma 2 Sudoeste 0 -- -- 87
2020-03-14 00:00:00 10.9 0 Calma 2 Este 0 -- -- 85
2020-03-13 23:00:00 12 0 Calma 11 Norte 0 -- -- 83
2020-03-13 22:00:00 12.1 3 Noroeste 8 Noroeste 0 -- -- 85
2020-03-13 21:00:00 12.2 2 Norte 9 Norte 0 -- -- 85
2020-03-13 20:00:00 12.5 3 Norte 11 Norte 0 -- -- 83
2020-03-13 19:00:00 13.5 5 Norte 14 Noroeste 0 -- -- 79
2020-03-13 18:00:00 15.5 6 Norte 22 Norte 0 -- -- 72
2020-03-13 17:00:00 18.9 13 Nordeste 25 Nordeste 0 -- -- 55
2020-03-13 16:00:00 19.7 13 Nordeste 31 Nordeste 0 -- -- 55
2020-03-13 15:00:00 19.8 18 Nordeste 33 Nordeste 0 -- -- 57
2020-03-13 14:00:00 19.7 17 Nordeste 33 Norte 0 -- -- 59
2020-03-13 13:00:00 19.7 17 Nordeste 37 Nordeste 0 -- -- 61
2020-03-13 12:00:00 18.9 18 Nordeste 32 Nordeste 0 -- -- 70
2020-03-13 11:00:00 18.5 14 Nordeste 28 Nordeste 0 -- -- 67
2020-03-13 10:00:00 17.4 12 Nordeste 28 Nordeste 0 -- -- 71
2020-03-13 09:00:00 15.2 9 Nordeste 19 Nordeste 0 -- -- 81
2020-03-13 08:00:00 12.5 4 Nordeste 15 Este 0 -- -- 88
2020-03-13 07:00:00 11.9 8 Nordeste 25 Norte 0 -- -- 87
2020-03-13 06:00:00 10.6 3 Este 8 Nordeste 0 -- -- 83
2020-03-13 05:00:00 9.2 0 Calma 10 Este 0 -- -- 86
2020-03-13 04:00:00 9.3 4 Este 7 Este 0 -- -- 93
2020-03-13 03:00:00 10.3 3 Este 9 Sudeste 0 -- -- 92
2020-03-13 02:00:00 10.1 3 Este 8 Este 0 -- -- 91
2020-03-13 01:00:00 10.6 3 Sudeste 9 Sudeste 0 -- -- 92
2020-03-13 00:00:00 10.6 5 Este 8 Este 0 -- -- 88
2020-03-12 23:00:00 12.3 4 Sudeste 11 Este 0 -- -- 85
2020-03-12 22:00:00 13 6 Este 11 Este 0 -- -- 86
2020-03-12 21:00:00 13.1 4 Este 7 Este 0 -- -- 87
2020-03-12 20:00:00 14.5 6 Este 12 Este 0 -- -- 79
2020-03-12 19:00:00 16.9 6 Sudeste 9 Sudeste 0 -- -- 55
2020-03-12 18:00:00 20.5 4 Sudeste 15 Sudeste 0 -- -- 44
2020-03-12 17:00:00 22.4 8 Sudeste 16 Sudoeste 0 -- -- 38
2020-03-12 16:00:00 23.6 9 Sudoeste 18 Sudoeste 0 -- -- 35
2020-03-12 15:00:00 23.5 12 Sudoeste 20 Sudoeste 0 -- -- 34
2020-03-12 14:00:00 23.6 15 Sudoeste 23 Oeste 0 -- -- 34
2020-03-12 13:00:00 23.5 5 Sudoeste 19 Sudoeste 0 -- -- 41
2020-03-12 12:00:00 21.6 9 Oeste 16 Oeste 0 -- -- 44
2020-03-12 11:00:00 20.2 0 Calma 9 Nordeste 0 -- -- 51
2020-03-12 10:00:00 17.1 5 Nordeste 8 Nordeste 0 -- -- 74
2020-03-12 09:00:00 12.9 0 Calma 5 Nordeste 0 -- -- 92
2020-03-12 08:00:00 9.1 0 Calma 5 Nordeste 0 -- -- 96
2020-03-12 07:00:00 8.2 0 Calma 8 Este 0 -- -- 95
2020-03-12 06:00:00 8.6 0 Calma 6 Este 0 -- -- 95
2020-03-12 05:00:00 9.2 2 Nordeste 5 Este 0 -- -- 95
2020-03-12 04:00:00 9.9 2 Norte 5 Norte 0 -- -- 94
2020-03-12 03:00:00 10.6 4 Noroeste 10 Oeste 0 -- -- 94
2020-03-12 02:00:00 12.4 4 Noroeste 12 Oeste 0 -- -- 89
2020-03-12 01:00:00 13.1 8 Oeste 14 Sudoeste 0 -- -- 93
2020-03-12 00:00:00 13.1 7 Sudoeste 13 Sudoeste 0 -- -- 94
2020-03-11 23:00:00 13.4 6 Sudoeste 21 Sudoeste 0 -- -- 94
2020-03-11 22:00:00 13.9 14 Sudoeste 22 Sudoeste 0 -- -- 93
2020-03-11 21:00:00 14.1 13 Sudoeste 23 Sudoeste 0 -- -- 92
2020-03-11 20:00:00 14.5 14 Sudoeste 26 Sudoeste 0 -- -- 89
2020-03-11 19:00:00 15.5 14 Sudoeste 25 Sudoeste 0 -- -- 84
2020-03-11 18:00:00 18 16 Sudoeste 26 Sudoeste 0 -- -- 74
2020-03-11 17:00:00 20.5 16 Sudoeste 23 Sudoeste 0 -- -- 65
2020-03-11 16:00:00 21.1 14 Sudoeste 24 Sudoeste 0 -- -- 64
2020-03-11 15:00:00 21.1 13 Sudoeste 23 Sudoeste 0 -- -- 66
2020-03-11 14:00:00 21.3 10 Sudoeste 22 Oeste 0 -- -- 64
2020-03-11 13:00:00 20.7 8 Sudoeste 17 Sur 0 -- -- 61
2020-03-11 12:00:00 19.9 5 Oeste 14 Sudoeste 0 -- -- 66
2020-03-11 11:00:00 18.6 8 Sudoeste 15 Sudoeste 0 -- -- 69
2020-03-11 10:00:00 17.3 5 Sur 14 Sudoeste 0 -- -- 72
2020-03-11 09:00:00 15.7 0 Calma 9 Sudeste 0 -- -- 79
2020-03-11 08:00:00 12 7 Este 13 Este 0 -- -- 89
2020-03-11 07:00:00 11.6 2 Nordeste 15 Sudoeste 0 -- -- 86
2020-03-11 06:00:00 12.6 11 Sudoeste 22 Sudoeste 0 -- -- 87
2020-03-11 05:00:00 12.6 15 Sudoeste 26 Sudoeste 0 -- -- 89
2020-03-11 04:00:00 12.5 18 Sudoeste 30 Sudoeste 0 -- -- 91
2020-03-11 03:00:00 12.5 20 Sudoeste 32 Sudoeste 0 -- -- 92
2020-03-11 02:00:00 12.4 20 Sudoeste 33 Sudoeste 0 -- -- 93
2020-03-11 01:00:00 12.2 19 Sudoeste 33 Sudoeste 0 -- -- 93
2020-03-11 00:00:00 12.3 18 Sudoeste 34 Sudoeste 0 -- -- 90
2020-03-10 23:00:00 12.1 21 Sudoeste 33 Sudoeste 0 -- -- 89
2020-03-10 22:00:00 12.2 18 Sudoeste 30 Sudoeste 0 -- -- 87
2020-03-10 21:00:00 12.1 14 Sudoeste 23 Sudoeste 0 -- -- 85
2020-03-10 20:00:00 12.6 12 Sudoeste 24 Sudoeste 0 -- -- 82
2020-03-10 19:00:00 13.4 13 Sudoeste 31 Sudoeste 0 -- -- 77
2020-03-10 18:00:00 14.4 21 Sudoeste 31 Sudoeste 0 -- -- 73
2020-03-10 17:00:00 16.4 21 Sudoeste 37 Sudoeste 0 -- -- 62
2020-03-10 16:00:00 16.9 23 Sudoeste 31 Sudoeste 0 -- -- 59
2020-03-10 15:00:00 15.8 22 Sudoeste 33 Sudoeste 0 -- -- 60
2020-03-10 14:00:00 16.6 17 Oeste 28 Sudoeste 0 -- -- 58
2020-03-10 13:00:00 17.1 12 Sudoeste 24 Sudoeste 0 -- -- 57
2020-03-10 12:00:00 15.8 11 Oeste 19 Sudoeste 0 -- -- 61
2020-03-10 11:00:00 14.7 6 Oeste 15 Norte 0 -- -- 62
2020-03-10 10:00:00 14.1 6 Noroeste 13 Oeste 0 -- -- 66
2020-03-10 09:00:00 13.2 2 Nordeste 8 Nordeste 0 -- -- 70
2020-03-10 08:00:00 9.9 0 Calma 6 Sudoeste 0 -- -- 82
2020-03-10 07:00:00 9.3 2 Este 15 Nordeste 0 -- -- 82
2020-03-10 06:00:00 9 4 Nordeste 14 Nordeste 0 -- -- 82
2020-03-10 05:00:00 10.1 9 Nordeste 19 Nordeste 0 -- -- 80
2020-03-10 04:00:00 9.5 4 Nordeste 20 Norte 0 -- -- 79
2020-03-10 03:00:00 10.2 8 Nordeste 27 Norte 0 -- -- 75
2020-03-10 02:00:00 10.8 8 Nordeste 22 Nordeste 0 -- -- 73
2020-03-10 01:00:00 10.1 0 Calma 10 Nordeste 0 -- -- 85
2020-03-10 00:00:00 9.4 0 Calma 6 Nordeste 0 -- -- 89
2020-03-09 23:00:00 9.2 3 Sudeste 8 Sudeste 0 -- -- 91
2020-03-09 22:00:00 7.5 3 Este 5 Este 0 -- -- 89
2020-03-09 21:00:00 8.9 4 Este 6 Este 0 -- -- 88
2020-03-09 20:00:00 9.7 4 Este 8 Sudeste 0 -- -- 85
2020-03-09 19:00:00 11.3 5 Este 13 Este 0 -- -- 79
2020-03-09 18:00:00 13.9 5 Este 14 Este 0 -- -- 72
2020-03-09 17:00:00 13.3 4 Sudeste 13 Este 0 -- -- 75
2020-03-09 16:00:00 13.5 4 Este 14 Este 0 -- -- 74
2020-03-09 15:00:00 13.7 8 Este 19 Nordeste 0 -- -- 73
2020-03-09 14:00:00 15.3 10 Nordeste 24 Este 0 -- -- 72
2020-03-09 13:00:00 16.4 14 Noroeste 30 Noroeste 0 -- -- 62
2020-03-09 12:00:00 16.8 17 Noroeste 29 Noroeste 0 -- -- 51
2020-03-09 11:00:00 16.5 8 Norte 17 Noroeste 0 -- -- 58
2020-03-09 10:00:00 14.1 0 Calma 4 Sudoeste 0 -- -- 77
2020-03-09 09:00:00 10.9 0 Calma 4 Sudoeste 0 -- -- 97
2020-03-09 08:00:00 8 0 Calma 6 Este 0 -- -- 96
2020-03-09 07:00:00 7.7 0 Calma 5 Sur 0 -- -- 95
2020-03-09 06:00:00 8.3 5 Este 8 Este 0 -- -- 94
2020-03-09 05:00:00 9.7 0 Calma 3 Noroeste 0 -- -- 91
2020-03-09 04:00:00 12 4 Oeste 10 Sudoeste 0 -- -- 91
2020-03-09 03:00:00 12 7 Sudoeste 14 Sudoeste 0 -- -- 92
2020-03-09 02:00:00 12.3 11 Sudoeste 20 Sudoeste 0 -- -- 91
2020-03-09 01:00:00 12.5 13 Sudoeste 21 Sudoeste 0 -- -- 90
2020-03-09 00:00:00 12.4 13 Sudoeste 20 Sur 0 -- -- 89